Time;durP1;ratioP1;P1;durP2;ratioP2;P2;SDS_P1;SDS_P2;PMS_P1;PMS_P2;Temp;Humidity;BMP_temperature;BMP_pressure;BME280_temperature;BME280_humidity;BME280_pressure;Samples;Min_cycle;Max_cycle;Signal;HPM_P1;HPM_P2
2022/09/13 00:00:49;;;;;;;7.03;6.43;;;;;;;;;;5023752;28;20068;-66
2022/09/13 00:03:15;;;;;;;8.25;7.50;;;;;;;;;;5027111;28;20132;-66
2022/09/13 00:05:40;;;;;;;5.50;5.10;;;;;;;;;;5025569;28;20153;-66
2022/09/13 00:08:07;;;;;;;7.03;6.43;;;;;;;;;;5023024;28;20061;-66
2022/09/13 00:10:34;;;;;;;6.30;5.80;;;;;;;;;;5025916;28;20131;-66
2022/09/13 00:13:00;;;;;;;6.40;5.80;;;;;;;;;;5023467;28;20137;-66
2022/09/13 00:15:27;;;;;;;6.40;5.80;;;;;;;;;;5024855;28;20069;-66
2022/09/13 00:17:53;;;;;;;6.95;5.90;;;;;;;;;;5026092;28;20099;-66
2022/09/13 00:20:19;;;;;;;6.47;5.88;;;;;;;;;;5025751;28;20083;-66
2022/09/13 00:22:45;;;;;;;6.90;6.20;;;;;;;;;;5025296;28;20072;-67
2022/09/13 00:25:11;;;;;;;7.32;6.63;;;;;;;;;;5026285;28;20068;-66
2022/09/13 00:27:37;;;;;;;7.07;6.38;;;;;;;;;;5025367;28;20081;-66
2022/09/13 00:30:04;;;;;;;6.22;5.63;;;;;;;;;;5024932;28;20053;-66
2022/09/13 00:32:30;;;;;;;6.40;5.80;;;;;;;;;;5025819;28;20128;-66
2022/09/13 00:34:56;;;;;;;5.93;5.40;;;;;;;;;;5023969;28;20152;-66
2022/09/13 00:37:22;;;;;;;8.90;8.10;;;;;;;;;;5024871;28;20052;-66
2022/09/13 00:39:48;;;;;;;7.30;6.70;;;;;;;;;;5023337;28;20045;-67
2022/09/13 00:42:14;;;;;;;5.05;4.65;;;;;;;;;;5024668;28;20060;-66
2022/09/13 00:44:43;;;;;;;5.05;4.65;;;;;;;;;;5025622;28;20255;-65
2022/09/13 00:47:10;;;;;;;4.85;4.45;;;;;;;;;;5024200;28;20049;-66
2022/09/13 00:49:37;;;;;;;5.32;4.88;;;;;;;;;;5025025;28;20103;-65
2022/09/13 00:52:06;;;;;;;4.65;3.72;;;;;;;;;;5025896;28;20095;-65
2022/09/13 00:54:39;;;;;;;5.43;4.93;;;;;;;;;;5025686;28;20121;-65
2022/09/13 00:57:05;;;;;;;4.25;3.85;;;;;;;;;;5019394;28;20053;-66
2022/09/13 00:59:35;;;;;;;3.92;3.63;;;;;;;;;;5024024;28;20120;-66
2022/09/13 01:02:03;;;;;;;6.68;4.78;;;;;;;;;;5023773;28;20553;-66
2022/09/13 01:04:30;;;;;;;4.97;4.57;;;;;;;;;;5023177;28;20135;-66
2022/09/13 01:07:00;;;;;;;3.28;3.08;;;;;;;;;;5025384;28;20057;-66
2022/09/13 01:09:27;;;;;;;3.78;3.53;;;;;;;;;;5023499;28;20045;-67
2022/09/13 01:11:59;;;;;;;3.58;3.28;;;;;;;;;;5023932;28;20080;-67
2022/09/13 01:14:26;;;;;;;4.03;3.72;;;;;;;;;;5025189;28;20436;-67
2022/09/13 01:16:53;;;;;;;3.50;3.20;;;;;;;;;;5024649;28;20042;-67
2022/09/13 01:19:19;;;;;;;3.88;3.58;;;;;;;;;;5024150;28;20057;-66
2022/09/13 01:22:04;;;;;;;6.00;5.45;;;;;;;;;;5024122;28;20128;-67
2022/09/13 01:24:54;;;;;;;6.03;5.20;;;;;;;;;;5023371;28;20053;-67
2022/09/13 01:27:40;;;;;;;6.07;5.57;;;;;;;;;;5023584;28;20045;-67
2022/09/13 01:30:06;;;;;;;4.78;4.38;;;;;;;;;;5022560;28;20582;-66
2022/09/13 01:32:35;;;;;;;4.10;3.75;;;;;;;;;;5023618;28;20042;-67
2022/09/13 01:35:01;;;;;;;5.03;4.53;;;;;;;;;;5023735;28;20087;-66
2022/09/13 01:37:37;;;;;;;4.25;3.95;;;;;;;;;;5023884;28;20045;-67
2022/09/13 01:40:09;;;;;;;3.45;3.20;;;;;;;;;;5021188;28;20044;-67
2022/09/13 01:42:35;;;;;;;3.40;3.15;;;;;;;;;;5024680;28;20503;-67
2022/09/13 01:45:10;;;;;;;3.63;3.33;;;;;;;;;;5024087;28;20034;-67
2022/09/13 01:47:51;;;;;;;2.85;2.65;;;;;;;;;;5022823;28;20136;-67
2022/09/13 01:50:23;;;;;;;3.50;3.20;;;;;;;;;;5023561;28;20052;-67
2022/09/13 01:52:57;;;;;;;2.45;2.22;;;;;;;;;;5021857;28;20071;-67
2022/09/13 01:55:26;;;;;;;3.60;2.78;;;;;;;;;;5022329;28;20041;-67
2022/09/13 01:57:55;;;;;;;3.33;3.08;;;;;;;;;;5023028;28;20080;-67
2022/09/13 02:00:21;;;;;;;2.30;2.20;;;;;;;;;;5022688;28;20049;-67
2022/09/13 02:03:03;;;;;;;1.73;1.63;;;;;;;;;;5023614;28;20385;-67
2022/09/13 02:06:07;;;;;;;1.35;1.30;;;;;;;;;;5019816;28;20093;-67
2022/09/13 02:08:54;;;;;;;2.78;2.58;;;;;;;;;;4965123;28;20065;-67
2022/09/13 02:11:21;;;;;;;2.22;2.03;;;;;;;;;;4982386;28;20497;-67
2022/09/13 02:13:59;;;;;;;3.67;3.38;;;;;;;;;;4999783;28;20057;-67
2022/09/13 02:16:31;;;;;;;3.08;2.85;;;;;;;;;;5020734;28;20099;-67
2022/09/13 02:18:59;;;;;;;2.17;2.08;;;;;;;;;;5023988;28;20081;-67
2022/09/13 02:21:28;;;;;;;3.45;2.80;;;;;;;;;;5023616;28;20111;-67
2022/09/13 02:23:58;;;;;;;1.90;1.80;;;;;;;;;;5024157;28;20041;-67
2022/09/13 02:26:24;;;;;;;3.03;2.78;;;;;;;;;;5023455;28;20080;-66
2022/09/13 02:28:52;;;;;;;2.53;2.20;;;;;;;;;;5022846;28;20052;-66
2022/09/13 02:31:34;;;;;;;1.60;1.50;;;;;;;;;;5023103;28;20042;-66
2022/09/13 02:34:03;;;;;;;3.92;3.60;;;;;;;;;;5022752;28;20041;-66
2022/09/13 02:36:31;;;;;;;2.55;2.35;;;;;;;;;;5024162;28;20103;-66
2022/09/13 02:38:59;;;;;;;2.22;2.13;;;;;;;;;;5022885;28;20040;-66
2022/09/13 02:41:37;;;;;;;2.45;2.17;;;;;;;;;;5022445;28;20511;-66
2022/09/13 02:44:10;;;;;;;1.95;1.75;;;;;;;;;;5022449;28;20076;-66
2022/09/13 02:46:42;;;;;;;2.17;1.77;;;;;;;;;;5023848;28;20049;-66
2022/09/13 02:49:23;;;;;;;2.50;2.00;;;;;;;;;;5019407;28;20052;-66
2022/09/13 02:52:01;;;;;;;2.00;1.90;;;;;;;;;;5023685;28;20049;-67
2022/09/13 02:54:32;;;;;;;1.10;1.10;;;;;;;;;;5022146;28;20475;-66
2022/09/13 02:57:01;;;;;;;1.27;0.85;;;;;;;;;;5024059;28;20045;-66
2022/09/13 02:59:27;;;;;;;0.90;0.70;;;;;;;;;;5023740;28;20129;-66
2022/09/13 03:01:53;;;;;;;0.50;0.45;;;;;;;;;;5021744;28;20475;-66
2022/09/13 03:04:20;;;;;;;0.50;0.30;;;;;;;;;;5025970;28;20048;-66
2022/09/13 03:06:46;;;;;;;0.28;0.28;;;;;;;;;;5026154;28;20053;-66
2022/09/13 03:09:12;;;;;;;0.40;0.30;;;;;;;;;;5026126;28;20046;-66
2022/09/13 03:11:51;;;;;;;0.10;0.10;;;;;;;;;;5026192;28;20061;-66
2022/09/13 03:14:20;;;;;;;0.08;0.08;;;;;;;;;;5025500;28;20072;-66
2022/09/13 03:17:19;;;;;;;0.10;0.10;;;;;;;;;;5027027;28;20052;-66
2022/09/13 03:19:57;;;;;;;0.20;0.10;;;;;;;;;;5012407;28;20232;-66
2022/09/13 03:22:49;;;;;;;0.77;0.03;;;;;;;;;;5024755;28;20034;-66
2022/09/13 03:25:18;;;;;;;0.10;0.10;;;;;;;;;;5000296;28;20060;-66
2022/09/13 03:27:44;;;;;;;0.20;0.20;;;;;;;;;;5026526;28;20091;-66
2022/09/13 03:30:12;;;;;;;0.20;0.20;;;;;;;;;;5026615;28;20041;-66
2022/09/13 03:32:57;;;;;;;0.20;0.13;;;;;;;;;;5025855;28;20056;-66
2022/09/13 03:35:37;;;;;;;0.10;0.10;;;;;;;;;;5026576;28;20091;-66
2022/09/13 03:38:06;;;;;;;0.05;0.05;;;;;;;;;;5025348;28;20503;-66
2022/09/13 03:40:39;;;;;;;0.13;0.10;;;;;;;;;;5025933;28;20129;-66
2022/09/13 03:43:17;;;;;;;0.10;0.10;;;;;;;;;;5025431;28;20527;-66
2022/09/13 03:45:54;;;;;;;0.30;0.15;;;;;;;;;;5025332;28;20045;-66
2022/09/13 03:48:21;;;;;;;0.10;0.10;;;;;;;;;;5025494;28;20037;-66
2022/09/13 03:50:48;;;;;;;0.00;0.00;;;;;;;;;;5025184;28;20053;-66
2022/09/13 03:53:18;;;;;;;0.00;0.00;;;;;;;;;;5025297;28;20530;-66
2022/09/13 03:55:44;;;;;;;0.10;0.10;;;;;;;;;;5025884;28;20128;-66
2022/09/13 03:58:11;;;;;;;0.10;0.10;;;;;;;;;;5025024;28;20048;-66
2022/09/13 04:00:40;;;;;;;0.00;0.00;;;;;;;;;;5026355;28;20041;-66
2022/09/13 04:03:06;;;;;;;0.10;0.10;;;;;;;;;;5025457;28;20484;-66
2022/09/13 04:05:33;;;;;;;0.30;0.22;;;;;;;;;;5024215;28;20099;-66
2022/09/13 04:08:00;;;;;;;0.05;0.05;;;;;;;;;;5026467;28;20099;-67
2022/09/13 04:10:27;;;;;;;0.00;0.00;;;;;;;;;;5025783;28;20046;-66
2022/09/13 04:12:54;;;;;;;0.10;0.10;;;;;;;;;;5025807;28;20575;-66
2022/09/13 04:15:20;;;;;;;0.00;0.00;;;;;;;;;;5024430;28;20049;-66
2022/09/13 04:17:47;;;;;;;0.28;0.20;;;;;;;;;;5026300;28;20060;-66
2022/09/13 04:20:13;;;;;;;0.00;0.00;;;;;;;;;;5026420;28;20038;-66
2022/09/13 04:22:39;;;;;;;0.10;0.10;;;;;;;;;;5022259;28;20526;-66
2022/09/13 04:25:06;;;;;;;0.15;0.10;;;;;;;;;;5026263;28;20045;-66
2022/09/13 04:27:32;;;;;;;0.55;0.10;;;;;;;;;;5025461;28;20373;-66
2022/09/13 04:29:58;;;;;;;0.00;0.00;;;;;;;;;;5024700;28;20076;-66
2022/09/13 04:32:24;;;;;;;0.20;0.10;;;;;;;;;;5026071;28;20687;-66
2022/09/13 04:34:50;;;;;;;0.08;0.03;;;;;;;;;;5023991;28;20100;-66
2022/09/13 04:37:16;;;;;;;0.10;0.10;;;;;;;;;;5025322;28;20514;-66
2022/09/13 04:39:42;;;;;;;0.10;0.10;;;;;;;;;;5024604;28;20053;-66
2022/09/13 04:42:10;;;;;;;0.90;0.03;;;;;;;;;;5024204;28;20056;-66
2022/09/13 04:44:36;;;;;;;0.00;0.00;;;;;;;;;;5024727;28;20045;-66
2022/09/13 04:47:02;;;;;;;0.00;0.00;;;;;;;;;;5019084;28;20049;-66
2022/09/13 04:49:28;;;;;;;0.40;0.10;;;;;;;;;;5025603;28;20037;-66
2022/09/13 04:51:54;;;;;;;0.10;0.10;;;;;;;;;;5024322;28;20111;-66
2022/09/13 04:54:21;;;;;;;0.20;0.20;;;;;;;;;;5025442;28;20045;-66
2022/09/13 04:56:48;;;;;;;0.08;0.08;;;;;;;;;;5025770;28;20045;-66
2022/09/13 04:59:15;;;;;;;0.28;0.20;;;;;;;;;;5026259;28;20049;-66
2022/09/13 05:01:41;;;;;;;0.32;0.15;;;;;;;;;;5023497;28;20571;-66
2022/09/13 05:04:08;;;;;;;0.10;0.10;;;;;;;;;;5025542;28;20545;-66
2022/09/13 05:06:35;;;;;;;0.05;0.03;;;;;;;;;;5024591;28;20056;-66
2022/09/13 05:09:01;;;;;;;0.28;0.10;;;;;;;;;;5018798;28;20045;-66
2022/09/13 05:11:28;;;;;;;0.00;0.00;;;;;;;;;;5025043;28;20132;-66
2022/09/13 05:13:56;;;;;;;0.10;0.10;;;;;;;;;;5025674;28;20042;-66
2022/09/13 05:16:23;;;;;;;0.00;0.00;;;;;;;;;;5023465;28;20107;-66
2022/09/13 05:18:50;;;;;;;0.10;0.10;;;;;;;;;;5023951;28;20434;-67
2022/09/13 05:21:17;;;;;;;0.10;0.10;;;;;;;;;;5025857;28;20074;-66
2022/09/13 05:23:43;;;;;;;0.10;0.10;;;;;;;;;;5022611;28;20081;-66
2022/09/13 05:26:10;;;;;;;0.00;0.00;;;;;;;;;;5023243;28;20049;-66
2022/09/13 05:28:36;;;;;;;0.10;0.10;;;;;;;;;;5024929;28;20077;-66
2022/09/13 05:31:07;;;;;;;0.10;0.10;;;;;;;;;;5023125;28;20060;-66
2022/09/13 05:33:35;;;;;;;0.00;0.00;;;;;;;;;;5022269;28;20213;-66
2022/09/13 05:36:01;;;;;;;0.00;0.00;;;;;;;;;;5023392;28;20068;-66
2022/09/13 05:38:27;;;;;;;0.17;0.17;;;;;;;;;;5024441;28;20041;-66
2022/09/13 05:40:55;;;;;;;0.00;0.00;;;;;;;;;;5023629;28;20095;-66
2022/09/13 05:43:22;;;;;;;0.00;0.00;;;;;;;;;;5024591;28;20121;-66
2022/09/13 05:45:48;;;;;;;0.00;0.00;;;;;;;;;;5022640;28;20058;-66
2022/09/13 05:48:14;;;;;;;0.30;0.10;;;;;;;;;;5024606;28;20048;-66
2022/09/13 05:50:40;;;;;;;0.10;0.00;;;;;;;;;;5020326;28;20091;-66
2022/09/13 05:53:06;;;;;;;0.20;0.20;;;;;;;;;;5023445;28;20373;-66
2022/09/13 05:55:33;;;;;;;0.03;0.00;;;;;;;;;;5023067;28;20095;-66
2022/09/13 05:57:59;;;;;;;0.15;0.00;;;;;;;;;;5020307;28;20049;-66
2022/09/13 06:00:25;;;;;;;0.00;0.00;;;;;;;;;;5023175;28;20057;-66
2022/09/13 06:02:51;;;;;;;0.00;0.00;;;;;;;;;;5022123;28;20052;-66
2022/09/13 06:05:17;;;;;;;0.10;0.10;;;;;;;;;;5022125;28;20045;-66
2022/09/13 06:07:43;;;;;;;0.10;0.10;;;;;;;;;;5022907;28;20428;-66
2022/09/13 06:10:09;;;;;;;0.00;0.00;;;;;;;;;;5024095;28;20042;-66
2022/09/13 06:12:35;;;;;;;0.10;0.10;;;;;;;;;;5021933;28;20059;-65
2022/09/13 06:15:01;;;;;;;0.00;0.00;;;;;;;;;;5023295;28;20037;-66
2022/09/13 06:17:27;;;;;;;0.10;0.08;;;;;;;;;;5023782;28;20077;-66
2022/09/13 06:19:55;;;;;;;0.00;0.00;;;;;;;;;;5020917;28;20548;-65
2022/09/13 06:22:21;;;;;;;0.05;0.00;;;;;;;;;;5020193;28;20614;-65
2022/09/13 06:24:47;;;;;;;0.10;0.10;;;;;;;;;;5012191;28;20045;-65
2022/09/13 06:27:13;;;;;;;0.00;0.00;;;;;;;;;;5023950;28;20034;-65
2022/09/13 06:29:39;;;;;;;0.00;0.00;;;;;;;;;;5022642;28;20753;-66
2022/09/13 06:32:05;;;;;;;0.28;0.08;;;;;;;;;;5023839;28;20069;-65
2022/09/13 06:34:32;;;;;;;0.00;0.00;;;;;;;;;;5023211;28;20111;-66
2022/09/13 06:36:58;;;;;;;0.00;0.00;;;;;;;;;;5022636;28;20455;-66
2022/09/13 06:39:24;;;;;;;0.00;0.00;;;;;;;;;;5026312;28;20045;-66
2022/09/13 06:41:50;;;;;;;0.28;0.15;;;;;;;;;;5025931;28;20064;-66
2022/09/13 06:44:16;;;;;;;0.00;0.00;;;;;;;;;;5027411;28;20535;-66
2022/09/13 06:46:42;;;;;;;0.00;0.00;;;;;;;;;;5026690;28;20877;-66
2022/09/13 06:49:09;;;;;;;0.00;0.00;;;;;;;;;;5025306;28;20091;-66
2022/09/13 06:51:36;;;;;;;0.00;0.00;;;;;;;;;;5026751;28;20159;-66
2022/09/13 06:54:05;;;;;;;0.13;0.00;;;;;;;;;;5026402;28;20569;-66
2022/09/13 06:56:32;;;;;;;0.20;0.00;;;;;;;;;;5027202;28;20053;-66
2022/09/13 06:59:00;;;;;;;0.32;0.13;;;;;;;;;;5019886;28;20042;-66
2022/09/13 07:01:30;;;;;;;0.40;0.20;;;;;;;;;;5018634;28;20485;-66
2022/09/13 07:04:03;;;;;;;0.15;0.15;;;;;;;;;;5025500;28;20038;-66
2022/09/13 07:06:31;;;;;;;0.00;0.00;;;;;;;;;;5023077;28;20057;-66
2022/09/13 07:08:59;;;;;;;0.10;0.03;;;;;;;;;;5006632;28;20050;-66
2022/09/13 07:11:28;;;;;;;0.00;0.00;;;;;;;;;;5024553;28;20137;-66
2022/09/13 07:13:55;;;;;;;0.00;0.00;;;;;;;;;;5028180;28;20115;-66
2022/09/13 07:16:22;;;;;;;0.30;0.10;;;;;;;;;;5027932;28;20094;-66
2022/09/13 07:18:52;;;;;;;0.47;0.10;;;;;;;;;;5026402;28;20108;-66
2022/09/13 07:21:18;;;;;;;0.17;0.10;;;;;;;;;;5028030;28;20056;-67
2022/09/13 07:23:44;;;;;;;0.08;0.08;;;;;;;;;;5026549;28;20060;-64
2022/09/13 07:26:10;;;;;;;0.22;0.20;;;;;;;;;;5007127;28;20046;-61
2022/09/13 07:28:40;;;;;;;0.20;0.20;;;;;;;;;;5007105;28;20056;-66
2022/09/13 07:31:17;;;;;;;0.22;0.15;;;;;;;;;;5007223;28;20053;-65
2022/09/13 07:33:44;;;;;;;0.08;0.08;;;;;;;;;;5008026;28;20053;-64
2022/09/13 07:36:11;;;;;;;0.10;0.10;;;;;;;;;;5024854;28;20516;-68
2022/09/13 07:38:37;;;;;;;0.20;0.20;;;;;;;;;;5019643;28;20081;-68
2022/09/13 07:41:05;;;;;;;0.32;0.10;;;;;;;;;;5025527;28;20059;-68
2022/09/13 07:43:33;;;;;;;0.10;0.10;;;;;;;;;;5026694;28;20124;-68
2022/09/13 07:45:59;;;;;;;0.10;0.10;;;;;;;;;;5021661;28;20045;-68
2022/09/13 07:48:26;;;;;;;0.30;0.10;;;;;;;;;;5026866;28;20136;-69
2022/09/13 07:51:01;;;;;;;0.40;0.10;;;;;;;;;;5023980;28;20061;-69
2022/09/13 07:53:28;;;;;;;0.00;0.00;;;;;;;;;;5025657;28;20144;-68
2022/09/13 07:55:59;;;;;;;0.45;0.20;;;;;;;;;;5025660;28;20041;-69
2022/09/13 07:58:25;;;;;;;0.40;0.10;;;;;;;;;;5026026;28;20055;-66
2022/09/13 08:00:51;;;;;;;0.17;0.10;;;;;;;;;;5024975;28;20037;-70
2022/09/13 08:03:17;;;;;;;0.10;0.10;;;;;;;;;;5027072;28;20569;-69
2022/09/13 08:05:43;;;;;;;1.17;0.52;;;;;;;;;;5026930;28;20103;-69
2022/09/13 08:08:09;;;;;;;0.65;0.30;;;;;;;;;;5025492;28;20049;-70
2022/09/13 08:10:35;;;;;;;0.25;0.10;;;;;;;;;;5025251;28;20712;-69
2022/09/13 08:13:01;;;;;;;0.43;0.20;;;;;;;;;;5022700;28;20060;-70
2022/09/13 08:15:27;;;;;;;3.20;0.70;;;;;;;;;;5008070;28;20053;-70
2022/09/13 08:17:53;;;;;;;2.63;0.70;;;;;;;;;;5005658;28;20112;-70
2022/09/13 08:20:19;;;;;;;2.20;0.60;;;;;;;;;;5017678;28;20038;-70
2022/09/13 08:22:45;;;;;;;1.10;0.28;;;;;;;;;;5016330;28;20116;-70
2022/09/13 08:25:11;;;;;;;1.20;0.30;;;;;;;;;;5007043;28;20563;-70
2022/09/13 08:27:37;;;;;;;0.20;0.20;;;;;;;;;;5005927;28;20386;-70
2022/09/13 08:30:04;;;;;;;0.43;0.28;;;;;;;;;;5017230;28;20714;-70
2022/09/13 08:32:30;;;;;;;0.60;0.20;;;;;;;;;;5024853;28;20122;-70
2022/09/13 08:34:56;;;;;;;0.32;0.20;;;;;;;;;;5025449;28;20538;-71
2022/09/13 08:37:22;;;;;;;1.25;0.28;;;;;;;;;;5025419;28;20092;-71
2022/09/13 08:39:48;;;;;;;0.20;0.20;;;;;;;;;;5025972;28;20041;-71
2022/09/13 08:42:29;;;;;;;0.70;0.30;;;;;;;;;;5027321;28;20041;-71
2022/09/13 08:44:56;;;;;;;2.63;0.52;;;;;;;;;;5026752;28;20132;-72
2022/09/13 08:47:28;;;;;;;0.88;0.32;;;;;;;;;;5022640;28;20057;-72
2022/09/13 08:49:54;;;;;;;;;;;;;;;;;;5022253;28;20068;-72
2022/09/13 08:52:34;;;;;;;0.68;0.30;;;;;;;;;;5017097;28;20371;-72
2022/09/13 08:55:02;;;;;;;1.00;0.30;;;;;;;;;;5022142;28;20244;-72
2022/09/13 08:57:35;;;;;;;1.30;0.43;;;;;;;;;;5012653;28;20053;-72
2022/09/13 09:00:01;;;;;;;0.60;0.30;;;;;;;;;;5016047;28;20562;-72
2022/09/13 09:02:40;;;;;;;1.95;0.40;;;;;;;;;;5005843;28;20042;-73
2022/09/13 09:05:20;;;;;;;0.38;0.30;;;;;;;;;;5009166;28;20084;-72
2022/09/13 09:08:01;;;;;;;0.88;0.35;;;;;;;;;;5020876;28;20075;-72
2022/09/13 09:10:30;;;;;;;1.70;0.40;;;;;;;;;;5021405;28;20480;-73
2022/09/13 09:13:06;;;;;;;2.58;0.65;;;;;;;;;;5019520;28;20379;-72
2022/09/13 09:15:35;;;;;;;1.77;0.40;;;;;;;;;;5008171;28;20113;-73
2022/09/13 09:18:12;;;;;;;2.67;0.60;;;;;;;;;;5016587;28;20613;-72
2022/09/13 09:20:49;;;;;;;1.77;0.30;;;;;;;;;;5012753;28;20514;-73
2022/09/13 09:23:18;;;;;;;1.58;0.30;;;;;;;;;;5010928;28;20076;-71
2022/09/13 09:25:45;;;;;;;0.75;0.40;;;;;;;;;;5026421;28;20403;-68
2022/09/13 09:28:13;;;;;;;1.13;0.47;;;;;;;;;;5024322;28;20841;-65
2022/09/13 09:30:59;;;;;;;0.40;0.20;;;;;;;;;;5026021;28;20229;-71
2022/09/13 09:33:37;;;;;;;0.57;0.20;;;;;;;;;;5007785;28;20077;-72
2022/09/13 09:36:07;;;;;;;1.35;0.40;;;;;;;;;;5005311;28;20049;-71
2022/09/13 09:38:38;;;;;;;1.80;0.52;;;;;;;;;;5004785;28;20556;-70
2022/09/13 09:41:06;;;;;;;0.30;0.30;;;;;;;;;;5022639;28;20049;-71
2022/09/13 09:43:41;;;;;;;0.60;0.30;;;;;;;;;;5019853;28;20068;-70
2022/09/13 09:46:08;;;;;;;0.45;0.30;;;;;;;;;;5023521;28;20060;-71
2022/09/13 09:48:37;;;;;;;2.10;0.30;;;;;;;;;;5024271;28;20487;-69
2022/09/13 09:51:04;;;;;;;1.35;0.40;;;;;;;;;;5021752;28;20411;-71
2022/09/13 09:53:33;;;;;;;2.50;0.60;;;;;;;;;;5023704;28;20056;-70
2022/09/13 09:56:01;;;;;;;0.90;0.40;;;;;;;;;;5024057;28;20060;-71
2022/09/13 09:58:36;;;;;;;0.73;0.40;;;;;;;;;;5023882;28;20049;-71
2022/09/13 10:01:04;;;;;;;0.50;0.40;;;;;;;;;;5024842;28;20037;-70
2022/09/13 10:03:31;;;;;;;2.15;0.20;;;;;;;;;;5024670;28;20504;-71
2022/09/13 10:06:12;;;;;;;3.88;0.40;;;;;;;;;;5023078;28;20056;-71
2022/09/13 10:08:41;;;;;;;0.85;0.40;;;;;;;;;;5020787;28;20399;-70
2022/09/13 10:11:07;;;;;;;1.50;0.55;;;;;;;;;;5017923;28;20053;-71
2022/09/13 10:13:35;;;;;;;1.77;0.40;;;;;;;;;;5014461;28;20068;-71
2022/09/13 10:16:02;;;;;;;0.60;0.38;;;;;;;;;;5018997;28;20046;-71
2022/09/13 10:18:29;;;;;;;0.70;0.30;;;;;;;;;;5020334;28;20516;-72
2022/09/13 10:21:04;;;;;;;3.53;0.20;;;;;;;;;;5022852;28;20077;-72
2022/09/13 10:23:31;;;;;;;3.90;0.98;;;;;;;;;;5022643;28;20052;-71
2022/09/13 10:25:57;;;;;;;0.88;0.28;;;;;;;;;;5018189;28;20049;-72
2022/09/13 10:28:24;;;;;;;1.20;0.40;;;;;;;;;;5024515;28;20052;-73
2022/09/13 10:30:53;;;;;;;1.08;0.30;;;;;;;;;;5022513;28;20057;-73
2022/09/13 10:33:25;;;;;;;1.67;0.38;;;;;;;;;;5022499;28;20056;-73
2022/09/13 10:35:54;;;;;;;0.30;0.20;;;;;;;;;;5023840;28;20045;-73
2022/09/13 10:38:52;;;;;;;1.58;0.10;;;;;;;;;;5023473;28;20175;-73
2022/09/13 10:41:22;;;;;;;1.35;0.40;;;;;;;;;;4987429;28;20054;-73
2022/09/13 10:43:52;;;;;;;0.55;0.20;;;;;;;;;;5022811;28;20049;-73
2022/09/13 10:46:22;;;;;;;0.45;0.30;;;;;;;;;;5022021;28;20052;-73
2022/09/13 10:48:55;;;;;;;0.40;0.20;;;;;;;;;;5022137;28;20186;-73
2022/09/13 10:51:29;;;;;;;1.38;0.10;;;;;;;;;;5024040;28;20053;-74
2022/09/13 10:54:19;;;;;;;0.52;0.10;;;;;;;;;;5021832;28;20129;-74
2022/09/13 10:56:45;;;;;;;0.73;0.32;;;;;;;;;;5020083;28;20053;-73
2022/09/13 10:59:23;;;;;;;1.63;0.50;;;;;;;;;;5022303;28;20046;-71
2022/09/13 11:01:49;;;;;;;0.75;0.40;;;;;;;;;;5015963;28;20053;-71
2022/09/13 11:04:34;;;;;;;1.35;0.50;;;;;;;;;;5022911;28;20037;-71
2022/09/13 11:07:08;;;;;;;1.58;0.35;;;;;;;;;;5022099;28;20115;-71
2022/09/13 11:09:40;;;;;;;0.70;0.30;;;;;;;;;;5019058;28;20468;-71
2022/09/13 11:12:06;;;;;;;;;;;;;;;;;;5013309;28;20471;-72
2022/09/13 11:14:44;;;;;;;0.90;0.43;;;;;;;;;;5016838;28;19921;-71
2022/09/13 11:17:30;;;;;;;1.33;0.45;;;;;;;;;;5019717;28;20515;-71
2022/09/13 11:19:56;;;;;;;1.70;0.47;;;;;;;;;;4983988;28;20057;-71
2022/09/13 11:22:26;;;;;;;0.68;0.30;;;;;;;;;;5017671;28;20041;-70
2022/09/13 11:24:55;;;;;;;0.52;0.20;;;;;;;;;;5026196;28;20049;-71
2022/09/13 11:27:30;;;;;;;0.45;0.30;;;;;;;;;;5026392;28;20099;-71
2022/09/13 11:29:56;;;;;;;0.50;0.30;;;;;;;;;;5025278;28;20085;-70
2022/09/13 11:32:29;;;;;;;0.45;0.28;;;;;;;;;;5026608;28;20081;-71
2022/09/13 11:35:07;;;;;;;0.50;0.30;;;;;;;;;;5026295;28;20045;-70
2022/09/13 11:37:33;;;;;;;0.47;0.20;;;;;;;;;;5026167;28;20049;-71
2022/09/13 11:40:22;;;;;;;1.95;0.25;;;;;;;;;;5025680;28;20099;-70
2022/09/13 11:42:57;;;;;;;0.65;0.35;;;;;;;;;;5022791;28;20061;-70
2022/09/13 11:45:25;;;;;;;1.38;0.43;;;;;;;;;;5027456;28;20041;-71
2022/09/13 11:48:10;;;;;;;0.73;0.30;;;;;;;;;;5025175;28;20045;-71
2022/09/13 11:50:39;;;;;;;2.63;0.30;;;;;;;;;;5026297;28;20377;-70
2022/09/13 11:53:11;;;;;;;2.20;0.50;;;;;;;;;;5023623;28;20045;-70
2022/09/13 11:55:37;;;;;;;;;;;;;;;;;;5026404;28;20451;-71
2022/09/13 11:58:42;;;;;;;1.27;0.40;;;;;;;;;;5015341;28;19932;-70
2022/09/13 12:01:09;;;;;;;1.80;0.38;;;;;;;;;;4984682;28;20583;-71
2022/09/13 12:03:40;;;;;;;0.45;0.20;;;;;;;;;;4967975;28;20093;-70
2022/09/13 12:06:10;;;;;;;1.63;0.60;;;;;;;;;;5005769;28;20539;-70
2022/09/13 12:08:40;;;;;;;1.75;0.82;;;;;;;;;;5027104;28;20053;-71
2022/09/13 12:11:06;;;;;;;;;;;;;;;;;;5026572;28;20125;-70
2022/09/13 12:13:32;;;;;;;;;;;;;;;;;;5027016;28;20011;-70
2022/09/13 12:15:57;;;;;;;;;;;;;;;;;;5026340;28;20394;-70
2022/09/13 12:18:24;;;;;;;;;;;;;;;;;;5025280;28;19925;-70
2022/09/13 12:20:50;;;;;;;;;;;;;;;;;;5025414;28;19979;-71
2022/09/13 12:23:22;;;;;;;1.52;0.45;;;;;;;;;;5027572;28;19940;-70
2022/09/13 12:25:52;;;;;;;0.88;0.40;;;;;;;;;;5026199;28;20041;-70
2022/09/13 12:28:30;;;;;;;1.83;0.60;;;;;;;;;;5025781;28;20060;-71
2022/09/13 12:31:02;;;;;;;0.95;0.38;;;;;;;;;;5025356;28;20046;-70
2022/09/13 12:33:28;;;;;;;1.50;0.40;;;;;;;;;;5025063;28;20065;-70
2022/09/13 12:36:14;;;;;;;0.70;0.30;;;;;;;;;;5025626;28;20053;-70
2022/09/13 12:38:46;;;;;;;2.35;0.63;;;;;;;;;;5010978;28;20058;-70
2022/09/13 12:41:17;;;;;;;1.42;0.70;;;;;;;;;;5025749;28;20053;-71
2022/09/13 12:43:43;;;;;;;3.58;1.00;;;;;;;;;;5026874;28;20088;-71
2022/09/13 12:46:28;;;;;;;2.50;0.75;;;;;;;;;;5025796;28;20102;-71
2022/09/13 12:48:56;;;;;;;1.27;0.50;;;;;;;;;;5026644;28;20045;-71
2022/09/13 12:51:27;;;;;;;1.13;0.45;;;;;;;;;;5025822;28;20496;-71
2022/09/13 12:54:01;;;;;;;0.65;0.25;;;;;;;;;;5024564;28;20069;-71
2022/09/13 12:56:50;;;;;;;0.85;0.40;;;;;;;;;;5025302;28;20056;-71
2022/09/13 12:59:20;;;;;;;1.02;0.30;;;;;;;;;;5016841;28;20137;-71
2022/09/13 13:01:46;;;;;;;;;;;;;;;;;;5026922;28;20404;-71
2022/09/13 13:04:12;;;;;;;;;;;;;;;;;;5025773;28;19928;-71
2022/09/13 13:06:38;;;;;;;;;;;;;;;;;;5025775;28;19929;-71
2022/09/13 13:09:04;;;;;;;;;;;;;;;;;;5026403;28;19920;-71
2022/09/13 13:11:30;;;;;;;;;;;;;;;;;;5025430;28;20461;-71
2022/09/13 13:13:57;;;;;;;3.28;0.50;;;;;;;;;;5025465;28;20629;-71
2022/09/13 13:16:23;;;;;;;1.27;0.47;;;;;;;;;;5026702;28;20045;-71
2022/09/13 13:18:51;;;;;;;1.35;0.20;;;;;;;;;;5025712;28;20137;-71
2022/09/13 13:21:32;;;;;;;1.75;0.70;;;;;;;;;;5024111;28;20053;-71
2022/09/13 13:24:20;;;;;;;3.15;0.60;;;;;;;;;;5025719;28;20053;-71
2022/09/13 13:26:49;;;;;;;0.60;0.40;;;;;;;;;;5024689;28;20060;-71
2022/09/13 13:29:22;;;;;;;2.05;0.30;;;;;;;;;;5024334;28;20045;-71
2022/09/13 13:31:48;;;;;;;;;;;;;;;;;;5025618;28;20049;-71
2022/09/13 13:34:14;;;;;;;;;;;;;;;;;;5025244;28;19925;-71
2022/09/13 13:36:39;;;;;;;;;;;;;;;;;;5024155;28;20731;-71
2022/09/13 13:39:05;;;;;;;;;;;;;;;;;;5024421;28;19929;-71
2022/09/13 13:41:31;;;;;;;;;;;;;;;;;;5025612;28;19925;-71
2022/09/13 13:43:57;;;;;;;;;;;;;;;;;;5025809;28;20015;-71
2022/09/13 13:46:23;;;;;;;;;;;;;;;;;;5024648;28;19952;-71
2022/09/13 13:48:49;;;;;;;;;;;;;;;;;;5025302;28;19932;-71
2022/09/13 13:51:15;;;;;;;;;;;;;;;;;;5024847;28;19929;-71
2022/09/13 13:53:41;;;;;;;;;;;;;;;;;;5025909;28;19922;-71
2022/09/13 13:56:07;;;;;;;;;;;;;;;;;;5023768;28;19979;-71
2022/09/13 13:58:33;;;;;;;;;;;;;;;;;;5026092;28;19929;-71
2022/09/13 14:00:59;;;;;;;;;;;;;;;;;;5024585;28;20016;-71
2022/09/13 14:03:25;;;;;;;;;;;;;;;;;;5024388;28;19933;-71
2022/09/13 14:05:50;;;;;;;;;;;;;;;;;;5025226;28;20421;-71
2022/09/13 14:08:16;;;;;;;;;;;;;;;;;;5026182;28;20008;-71
2022/09/13 14:10:42;;;;;;;;;;;;;;;;;;5023914;28;19925;-71
2022/09/13 14:13:08;;;;;;;;;;;;;;;;;;5025530;28;20083;-71
2022/09/13 14:15:34;;;;;;;;;;;;;;;;;;5024256;28;20300;-71
2022/09/13 14:18:03;;;;;;;1.27;0.20;;;;;;;;;;5022893;28;20030;-71
2022/09/13 14:20:29;;;;;;;0.85;0.38;;;;;;;;;;5025176;28;20094;-71
2022/09/13 14:23:14;;;;;;;0.45;0.30;;;;;;;;;;5024051;28;20057;-71
2022/09/13 14:25:40;;;;;;;1.85;0.43;;;;;;;;;;5024347;28;20438;-71
2022/09/13 14:28:06;;;;;;;0.65;0.30;;;;;;;;;;5024800;28;20144;-71
2022/09/13 14:30:37;;;;;;;0.25;0.20;;;;;;;;;;5025233;28;20042;-71
2022/09/13 14:33:07;;;;;;;1.20;0.20;;;;;;;;;;5023613;28;20088;-71
2022/09/13 14:35:37;;;;;;;0.85;0.30;;;;;;;;;;5023787;28;20559;-71
2022/09/13 14:38:09;;;;;;;0.73;0.30;;;;;;;;;;5022911;28;20906;-70
2022/09/13 14:40:37;;;;;;;0.20;0.15;;;;;;;;;;5024875;28;20049;-71
2022/09/13 14:43:13;;;;;;;0.63;0.22;;;;;;;;;;5024846;28;20058;-71
2022/09/13 14:45:39;;;;;;;1.10;0.40;;;;;;;;;;5022744;28;20442;-71
2022/09/13 14:48:07;;;;;;;1.48;0.40;;;;;;;;;;5023161;28;20052;-71
2022/09/13 14:50:36;;;;;;;0.73;0.30;;;;;;;;;;5024952;28;20045;-71
2022/09/13 14:53:18;;;;;;;0.60;0.40;;;;;;;;;;5022309;28;20140;-71
2022/09/13 14:55:43;;;;;;;;;;;;;;;;;;5025576;28;20006;-71
2022/09/13 14:58:09;;;;;;;;;;;;;;;;;;5025081;28;20577;-70
2022/09/13 15:00:35;;;;;;;;;;;;;;;;;;5027239;28;19929;-71
2022/09/13 15:03:01;;;;;;;;;;;;;;;;;;5027477;28;19925;-71
2022/09/13 15:05:27;;;;;;;;;;;;;;;;;;5029000;28;20701;-71
2022/09/13 15:07:53;;;;;;;;;;;;;;;;;;5028478;28;20084;-71
2022/09/13 15:10:19;;;;;;;;;;;;;;;;;;5027701;28;19932;-70